AirNav   Air Wisconsin pilot careers
 
 847 users online  

17A Trigger Gap Airport
Berryville, Arkansas, USA

GOING TO BERRYVILLE?


FAA INFORMATION EFFECTIVE 13 SEPTEMBER 2018

Location

FAA Identifier: 17A
Lat/Long: 36-19-40.0000N / 093-37-19.0000W
36-19.666667N / 093-37.316667W
36.3277778 / -93.6219444
(estimated)
Elevation: 1630 ft. / 497 m (estimated)
From city: 5 miles SW of BERRYVILLE, AR
Time zone: UTC -5 (UTC -6 during Standard Time)
Zip code: 72616

Airport Operations

Airport use: Open to the public
Activation date: 09/2017
Control tower: no
ARTCC: MEMPHIS CENTER
FSS: JONESBORO FLIGHT SERVICE STATION
NOTAMs facility: JBR (NOTAM-D service not available)
Attendance: UNATTND
Segmented circle: no

Airport Communications

CTAF: 122.9

Nearby radio navigation aids

VOR radial/distance  VOR name  Freq  Var
HROr268/19.8HARRISON VOR/DME112.5004E
RZCr075/24.6RAZORBACK VORTAC116.4004E

Airport Services

Runway Information

Runway 10/28

Dimensions: 3000 x 75 ft. / 914 x 23 m
Surface: turf
RUNWAY 10  RUNWAY 28
Traffic pattern: rightright

Airport Ownership and Management from official FAA records

Ownership: Publicly-owned
Owner: RECREATIONAL AVIATION FOUNDATION
1711 W COLLEGE STREET
BOZEMAN, MT 59715
Phone 406-582-1723
Manager: CHAD COX
3404 CARDINAL LANE
BENTONVILLE, AR 72712
Phone 501-732-0658

Instrument Procedures

There are no published instrument procedures at 17A.

Some nearby airports with instrument procedures:

4M1 - Carroll County Airport (3 nm N)
H34 - Huntsville Municipal Airport (16 nm SW)
KHRO - Boone County Airport (23 nm E)
KROG - Rogers Executive Airport - Carter Field (24 nm W)
KBBG - Branson Airport (24 nm NE)
 
Loc | Ops | Rwys | IFR | FBO | Links
Com | Nav | Svcs | Stats | Notes


 
Aerial photo
WARNING: Photo may not be current or correct
Aerial photo of 17A (Trigger Gap Airport)
Photo by JD Lawson
Photo taken 21-Jan-2017
looking southeast.

Do you have a better or more recent aerial photo of Trigger Gap Airport that you would like to share? If so, please send us your photo.

 
Airport distance calculator
Flying to Trigger Gap Airport? Find the distance to fly.

From to 17A

Sunrise and sunset
Times for 18-Sep-2018
 Local
(UTC-5)
 Zulu
(UTC)
Morning civil twilight06:3411:34
Sunrise07:0012:00
Sunset19:1700:17
Evening civil twilight19:4300:43

Current date and time
Zulu (UTC)  19-Sep-2018 02:49:47
Local (UTC-5)  18-Sep-2018 21:49:47
 
METAR
KROG 
22nm W 
190158Z AUTO 15004KT 10SM CLR 27/21 A2998 RMK AO2 SLP136 T02720211
KHRO 
23nm E 
190153Z AUTO 20003KT 10SM BKN090 27/21 A2998 RMK AO2 SLP136 T02670211
KBBG 
24nm NE 
190215Z AUTO 08003KT 10SM OVC060 27/21 A2999 RMK AO2
KFWB 
25nm NE 
190235Z AUTO 09003KT 10SM CLR 25/21 A2998 RMK AO2
KASG 
26nm W 
190148Z 00000KT 10SM CLR 28/21 A2998
KVBT 
29nm W 
190156Z AUTO 17003KT 10SM CLR 28/21 A2998 RMK AO2 SLP141 T02780211
KFYV 
32nm SW 
190153Z 00000KT 10SM CLR 23/22 A2997 RMK AO2 SLP135 T02330217
KXNA 
33nm W 
190153Z 18004KT 10SM CLR 27/20 A2997 RMK AO2 SLP131 T02720200
KHFJ 
39nm NW 
190230Z AUTO 11005KT 10SM CLR 25/22 A2997 RMK AO2
KSLG 
42nm W 
190156Z AUTO 00000KT 10SM FEW060 SCT080 A2997 RMK AO2 SLPNO FZRANO $
TAF
KROG 
22nm W 
181720Z 1818/1918 26008KT P6SM BKN060 FM190100 16003KT P6SM SCT250
KHRO 
23nm E 
181720Z 1818/1918 21005KT P6SM SCT050
KBBG 
24nm NE 
181731Z 1818/1918 21004KT P6SM SCT150 FM190100 18002KT P6SM FEW250
NOTAMs
Click for the latest NOTAMs
NOTAMs are issued by the DoD/FAA and will open in a separate window not controlled by AirNav.

 

 
 

Would you like to see your business listed on this page?

 If your business provides an interesting product or service to pilots, flight crews, aircraft, or users of the Trigger Gap Airport, you should consider listing it here.  To start the listing process, click on the button below
 
Add a business
 

Other Pages about Trigger Gap Airport

Update a link
 
Copyright © AirNav, LLC. All rights reserved. Privacy Policy  Contact